North Salem, Indiana
Current Conditions -  °F | °C
As of 11:53 AM on Friday 24 Oct 2014 (Local Time) from KEYE Reporting Station
Broken Clouds Broken Clouds  
Wind Chill: 55°   Ceiling: 2100
Heat Index: 55°   Visibility: 10mi
Dew Point: 46°   Wind: 6mph
Humidity: 72%   Direction: 200°SSW
Pressure: 30.1"   Gusts: NA
Location:  39.86°N, 86.64°W
Report Text: KEYE 241553Z AUTO 20005KT 10SM BKN021 13/08 A3010 RMK AO2 SLP193 T01280078
Loading
Personal Weather Stations






























Interactive Weather Map
Tropical Storm Tracking
New forecast layout! Learn more

10-Day Weather Forecast

Advertisements
Track Severe Weather on mobile